createdAt,value
2018-12-17T00:02:56.581Z,21.42
2018-12-17T00:05:25.534Z,24.15
2018-12-17T00:07:54.478Z,23.80
2018-12-17T00:10:23.467Z,24.65
2018-12-17T00:12:52.398Z,22.53
2018-12-17T00:15:21.380Z,24.35
2018-12-17T00:17:50.369Z,23.02
2018-12-17T00:20:19.326Z,25.30
2018-12-17T00:25:23.579Z,24.63
2018-12-17T00:27:52.615Z,25.35
2018-12-17T00:32:59.639Z,24.18
2018-12-17T00:35:28.648Z,22.15
2018-12-17T00:37:57.604Z,24.95
2018-12-17T00:40:26.818Z,21.80
2018-12-17T00:42:55.774Z,25.40
2018-12-17T00:45:24.782Z,23.85
2018-12-17T00:47:53.722Z,19.73
2018-12-17T00:50:22.673Z,25.20
2018-12-17T00:52:51.630Z,23.18
2018-12-17T00:55:20.583Z,24.32
2018-12-17T00:57:49.548Z,28.20
2018-12-17T01:00:18.522Z,26.23
2018-12-17T01:02:47.505Z,24.57
2018-12-17T01:05:16.511Z,23.67
2018-12-17T01:07:45.564Z,24.90
2018-12-17T01:10:14.548Z,24.60
2018-12-17T01:12:43.489Z,24.18
2018-12-17T01:15:12.454Z,23.70
2018-12-17T01:17:41.466Z,31.48
2018-12-17T01:20:10.450Z,22.67
2018-12-17T01:22:39.418Z,25.02
2018-12-17T01:25:08.413Z,23.90
2018-12-17T01:27:37.401Z,24.07
2018-12-17T01:30:08.465Z,25.97
2018-12-17T01:32:37.429Z,19.82
2018-12-17T01:35:06.444Z,22.70
2018-12-17T01:37:35.409Z,23.60
2018-12-17T01:40:06.170Z,26.40
2018-12-17T01:42:35.125Z,24.10
2018-12-17T01:45:05.481Z,24.43
2018-12-17T01:47:34.451Z,23.57
2018-12-17T01:50:04.267Z,23.12
2018-12-17T01:52:33.243Z,19.62
2018-12-17T01:55:02.213Z,19.67
2018-12-17T01:57:31.156Z,22.07
2018-12-17T02:00:00.178Z,24.90
2018-12-17T02:02:29.237Z,24.30
2018-12-17T02:04:58.196Z,26.03
2018-12-17T02:07:27.148Z,26.17
2018-12-17T02:09:56.092Z,25.23
2018-12-17T02:12:25.045Z,26.55
2018-12-17T02:14:54.018Z,22.58
2018-12-17T02:17:23.009Z,25.37
2018-12-17T02:19:51.955Z,24.47
2018-12-17T02:22:20.998Z,24.60
2018-12-17T02:24:49.960Z,26.60
2018-12-17T02:27:18.898Z,22.55
2018-12-17T02:29:47.888Z,24.63
2018-12-17T02:32:16.866Z,24.67
2018-12-17T02:34:45.813Z,21.62
2018-12-17T02:37:14.776Z,23.30
2018-12-17T02:39:43.707Z,22.37
2018-12-17T02:42:12.696Z,19.47
2018-12-17T02:44:41.657Z,24.37
2018-12-17T02:47:10.685Z,21.75
2018-12-17T02:49:39.692Z,24.80
2018-12-17T02:52:08.699Z,22.07
2018-12-17T02:54:37.878Z,22.53
2018-12-17T02:57:06.903Z,20.85
2018-12-17T02:59:35.873Z,21.35
2018-12-17T03:02:04.873Z,24.92
2018-12-17T03:04:33.825Z,24.60
2018-12-17T03:07:02.801Z,24.93
2018-12-17T03:09:31.792Z,24.07
2018-12-17T03:12:00.798Z,23.47
2018-12-17T03:14:29.757Z,25.90
2018-12-17T03:16:58.685Z,25.70
2018-12-17T03:19:27.636Z,26.00
2018-12-17T03:21:56.656Z,27.90
2018-12-17T03:24:25.555Z,28.92
2018-12-17T03:26:54.544Z,25.02
2018-12-17T03:29:23.581Z,28.27
2018-12-17T03:31:52.888Z,25.72
2018-12-17T03:34:21.937Z,25.23
2018-12-17T03:36:50.891Z,26.00
2018-12-17T03:39:19.862Z,27.50
2018-12-17T03:41:48.842Z,29.40
2018-12-17T03:44:17.795Z,27.42
2018-12-17T03:46:46.732Z,24.52
2018-12-17T03:49:15.703Z,22.02
2018-12-17T03:51:44.696Z,29.60
2018-12-17T03:54:13.676Z,21.90
2018-12-17T03:56:42.640Z,25.97
2018-12-17T03:59:11.618Z,27.60
2018-12-17T04:01:40.553Z,24.53
2018-12-17T04:04:09.517Z,22.17
2018-12-17T04:06:38.470Z,25.13
2018-12-17T04:09:07.431Z,26.17
2018-12-17T04:11:36.408Z,21.12
2018-12-17T04:14:05.418Z,25.17
2018-12-17T04:16:34.397Z,20.83
2018-12-17T04:19:03.385Z,26.10
2018-12-17T04:21:32.411Z,22.65
2018-12-17T04:24:01.322Z,21.40
2018-12-17T04:26:30.256Z,21.57
2018-12-17T04:29:06.625Z,20.03
2018-12-17T04:31:30.099Z,19.25
2018-12-17T04:33:59.054Z,22.10
2018-12-17T04:36:28.004Z,21.37
2018-12-17T04:38:57.008Z,24.92
2018-12-17T04:41:25.972Z,25.62
2018-12-17T04:43:54.978Z,22.07
2018-12-17T04:46:23.915Z,25.82
2018-12-17T04:48:52.873Z,24.18
2018-12-17T04:51:21.857Z,25.57
2018-12-17T04:53:50.809Z,25.23
2018-12-17T04:56:19.751Z,22.75
2018-12-17T04:58:48.712Z,24.53
2018-12-17T05:01:17.700Z,24.47
2018-12-17T05:03:46.653Z,24.67
2018-12-17T05:06:15.633Z,22.07
2018-12-17T05:08:44.659Z,20.20
2018-12-17T05:11:13.664Z,21.80
2018-12-17T05:13:42.629Z,22.67
2018-12-17T05:16:11.625Z,20.48
2018-12-17T05:18:40.621Z,22.32
2018-12-17T05:21:09.614Z,22.17
2018-12-17T05:23:38.582Z,20.40
2018-12-17T05:26:07.534Z,18.63
2018-12-17T05:28:36.474Z,19.27
2018-12-17T05:31:05.454Z,20.97
2018-12-17T05:33:34.410Z,19.35
2018-12-17T05:36:03.474Z,18.73
2018-12-17T05:38:32.444Z,22.13
2018-12-17T05:41:01.391Z,19.70
2018-12-17T05:43:30.321Z,20.27
2018-12-17T05:45:59.279Z,23.38
2018-12-17T05:48:28.216Z,20.20
2018-12-17T05:50:57.176Z,23.30
2018-12-17T05:53:26.159Z,19.52
2018-12-17T05:55:55.132Z,22.82
2018-12-17T05:58:24.177Z,21.27
2018-12-17T06:00:53.168Z,24.47
2018-12-17T06:03:22.180Z,20.12
2018-12-17T06:05:51.142Z,20.77
2018-12-17T06:08:20.104Z,22.48
2018-12-17T06:10:49.048Z,23.10
2018-12-17T06:13:18.016Z,24.23
2018-12-17T06:15:46.988Z,22.32
2018-12-17T06:18:15.953Z,26.10
2018-12-17T06:20:45.670Z,23.63
2018-12-17T06:23:14.663Z,20.93
2018-12-17T06:25:43.621Z,25.57
2018-12-17T06:28:12.582Z,24.57
2018-12-17T06:30:41.545Z,25.27
2018-12-17T06:33:15.666Z,26.37
2018-12-17T06:35:41.420Z,24.70
2018-12-17T06:38:10.401Z,22.50
2018-12-17T06:40:39.363Z,26.27
2018-12-17T06:43:08.391Z,25.35
2018-12-17T06:45:37.436Z,22.62
2018-12-17T06:48:06.490Z,23.10
2018-12-17T06:50:35.425Z,23.93
2018-12-17T06:53:04.486Z,25.95
2018-12-17T06:55:33.447Z,24.03
2018-12-17T06:58:02.630Z,23.73
2018-12-17T07:00:31.594Z,24.83
2018-12-17T07:03:00.561Z,23.20
2018-12-17T07:05:29.504Z,23.42
2018-12-17T07:07:58.453Z,24.10
2018-12-17T07:10:27.456Z,26.43
2018-12-17T07:12:56.454Z,22.57
2018-12-17T07:15:25.450Z,23.52
2018-12-17T07:17:54.395Z,23.42
2018-12-17T07:20:23.388Z,24.70
2018-12-17T07:22:52.990Z,26.33
2018-12-17T07:25:21.941Z,27.07
2018-12-17T07:27:50.950Z,25.43
2018-12-17T07:30:19.923Z,23.57
2018-12-17T07:32:48.886Z,22.82
2018-12-17T07:35:17.885Z,27.22
2018-12-17T07:37:46.857Z,24.63
2018-12-17T07:40:16.015Z,27.17
2018-12-17T07:42:45.005Z,24.17
2018-12-17T07:45:14.019Z,26.87
2018-12-17T07:47:43.139Z,29.18
2018-12-17T07:50:12.134Z,24.07
2018-12-17T07:52:41.164Z,26.60
2018-12-17T07:55:10.127Z,21.80
2018-12-17T07:57:39.080Z,22.40
2018-12-17T08:00:08.420Z,27.35
2018-12-17T08:02:37.463Z,23.92
2018-12-17T08:05:07.399Z,24.15
2018-12-17T08:07:36.361Z,22.83
2018-12-17T08:10:06.276Z,23.90
2018-12-17T08:12:35.236Z,19.83
2018-12-17T08:15:05.492Z,26.27
2018-12-17T08:17:34.432Z,27.57
2018-12-17T08:20:04.308Z,25.00
2018-12-17T08:22:33.722Z,25.60
2018-12-17T08:25:02.653Z,25.30
2018-12-17T08:27:31.661Z,22.07
2018-12-17T08:30:03.887Z,22.67
2018-12-17T08:32:31.559Z,24.60
2018-12-17T08:35:00.530Z,23.37
2018-12-17T08:37:29.489Z,23.97
2018-12-17T08:39:58.456Z,22.77
2018-12-17T08:42:27.403Z,28.53
2018-12-17T08:44:56.390Z,15.15
2018-12-17T08:47:25.321Z,18.40
2018-12-17T08:49:54.301Z,23.43
2018-12-17T08:52:23.268Z,19.40
2018-12-17T08:54:52.353Z,19.77
2018-12-17T08:57:21.300Z,21.68
2018-12-17T08:59:50.297Z,16.17
2018-12-17T09:02:19.280Z,18.07
2018-12-17T09:04:48.289Z,18.73
2018-12-17T09:07:17.240Z,18.67
2018-12-17T09:09:46.237Z,20.30
2018-12-17T09:12:15.193Z,21.12
2018-12-17T09:14:44.150Z,19.97
2018-12-17T09:17:13.074Z,22.50
2018-12-17T09:19:42.047Z,18.90
2018-12-17T09:22:11.027Z,18.87
2018-12-17T09:24:40.006Z,20.23
2018-12-17T09:27:09.001Z,17.73
2018-12-17T09:29:37.973Z,16.87
2018-12-17T09:32:06.933Z,21.30
2018-12-17T09:34:35.901Z,18.77
2018-12-17T09:37:04.902Z,19.47
2018-12-17T09:39:33.886Z,17.00
2018-12-17T09:42:02.860Z,17.55
2018-12-17T09:44:31.883Z,17.63
2018-12-17T09:47:00.874Z,16.03
2018-12-17T09:49:29.832Z,16.77
2018-12-17T09:51:58.821Z,17.07
2018-12-17T09:54:27.797Z,16.00
2018-12-17T09:56:56.757Z,20.90
2018-12-17T09:59:25.694Z,16.23
2018-12-17T10:01:54.635Z,18.93
2018-12-17T10:04:23.593Z,17.23
2018-12-17T10:06:52.607Z,18.23
2018-12-17T10:09:21.604Z,16.20
2018-12-17T10:11:50.566Z,17.10
2018-12-17T10:14:20.116Z,16.27
2018-12-17T10:16:49.052Z,17.80
2018-12-17T10:19:17.992Z,16.83
2018-12-17T10:21:46.986Z,16.80
2018-12-17T10:24:16.055Z,16.63
2018-12-17T10:26:45.057Z,15.40
2018-12-17T10:29:14.005Z,14.73
2018-12-17T10:31:42.943Z,15.63
2018-12-17T10:34:11.979Z,13.27
2018-12-17T10:36:40.925Z,14.60
2018-12-17T10:39:09.879Z,14.07
2018-12-17T10:41:38.848Z,13.33
2018-12-17T10:44:07.894Z,14.23
2018-12-17T10:46:36.891Z,13.50
2018-12-17T10:49:05.894Z,13.50
2018-12-17T10:51:34.882Z,12.67
2018-12-17T10:54:03.865Z,12.30
2018-12-17T10:56:32.872Z,15.03
2018-12-17T10:59:01.833Z,12.90
2018-12-17T11:01:36.342Z,13.20
2018-12-17T11:04:07.269Z,11.57
2018-12-17T11:06:36.365Z,14.00
2018-12-17T11:09:07.212Z,12.37
2018-12-17T11:11:36.182Z,13.70
2018-12-17T11:14:05.115Z,13.20
2018-12-17T11:16:34.127Z,15.53
2018-12-17T11:19:03.123Z,11.77
2018-12-17T11:21:32.088Z,11.20
2018-12-17T11:24:01.114Z,11.37
2018-12-17T11:26:30.071Z,13.20
2018-12-17T11:28:59.053Z,13.50
2018-12-17T11:31:28.082Z,14.80
2018-12-17T11:33:57.042Z,12.37
2018-12-17T11:36:26.010Z,11.80
2018-12-17T11:38:54.954Z,12.23
2018-12-17T11:41:23.916Z,12.00
2018-12-17T11:43:52.911Z,12.57
2018-12-17T11:46:21.862Z,12.33
2018-12-17T11:48:50.854Z,12.37
2018-12-17T11:51:19.824Z,10.10
2018-12-17T11:53:48.813Z,11.40
2018-12-17T11:56:17.851Z,12.43
2018-12-17T11:58:46.800Z,13.77
2018-12-17T12:01:15.785Z,13.23
2018-12-17T12:03:44.962Z,12.67
2018-12-17T12:06:14.505Z,11.90
2018-12-17T12:08:43.508Z,11.47
2018-12-17T12:11:12.446Z,10.90
2018-12-17T12:13:41.431Z,12.23
2018-12-17T12:16:10.367Z,12.90
2018-12-17T12:18:39.303Z,12.43
2018-12-17T12:21:08.310Z,11.60
2018-12-17T12:23:37.269Z,11.07
2018-12-17T12:26:06.300Z,11.50
2018-12-17T12:28:35.248Z,11.80
2018-12-17T12:31:04.223Z,11.83
2018-12-17T12:33:33.245Z,13.40
2018-12-17T12:36:02.228Z,13.30
2018-12-17T12:38:31.187Z,13.67
2018-12-17T12:41:00.137Z,12.63
2018-12-17T12:43:29.267Z,13.73
2018-12-17T12:45:58.373Z,13.60
2018-12-17T12:48:27.428Z,10.67
2018-12-17T12:50:56.415Z,12.90
2018-12-17T12:53:25.379Z,12.93
2018-12-17T12:55:54.341Z,12.33
2018-12-17T12:58:23.266Z,13.27
2018-12-17T13:00:52.249Z,13.60
2018-12-17T13:03:21.207Z,13.57
2018-12-17T13:05:50.163Z,12.50
2018-12-17T13:08:19.105Z,11.80
2018-12-17T13:10:48.032Z,11.33
2018-12-17T13:13:16.972Z,9.97
2018-12-17T13:15:45.923Z,12.97
2018-12-17T13:18:14.940Z,13.60
2018-12-17T13:20:43.883Z,11.13
2018-12-17T13:23:12.843Z,12.40
2018-12-17T13:28:18.593Z,11.87
2018-12-17T13:33:25.614Z,11.00
2018-12-17T13:35:54.595Z,11.27
2018-12-17T13:38:23.544Z,13.20
2018-12-17T13:40:52.525Z,11.43
2018-12-17T13:43:21.455Z,13.00
2018-12-17T13:45:50.415Z,11.67
2018-12-17T13:48:19.375Z,12.57
2018-12-17T13:50:50.252Z,14.73
2018-12-17T13:53:24.557Z,14.57
2018-12-17T13:55:53.541Z,13.43
2018-12-17T13:58:22.528Z,13.87
2018-12-17T14:00:51.497Z,14.80
2018-12-17T14:03:20.487Z,11.60
2018-12-17T14:05:49.448Z,12.27
2018-12-17T14:08:18.409Z,12.00
2018-12-17T14:10:49.777Z,12.87
2018-12-17T14:13:18.774Z,12.33
2018-12-17T14:15:52.397Z,14.63
2018-12-17T14:18:26.961Z,14.33
2018-12-17T14:21:01.634Z,12.40
2018-12-17T14:23:30.582Z,15.67
2018-12-17T14:25:59.579Z,12.57
2018-12-17T14:28:28.524Z,14.10
2018-12-17T14:30:57.472Z,13.10
2018-12-17T14:33:26.437Z,13.80
2018-12-17T14:36:00.868Z,14.90
2018-12-17T14:38:29.885Z,14.40
2018-12-17T14:40:58.934Z,14.97
2018-12-17T14:43:27.954Z,15.70
2018-12-17T14:45:56.917Z,14.83
2018-12-17T14:48:25.873Z,13.33
2018-12-17T14:50:54.861Z,13.80
2018-12-17T14:53:23.805Z,12.77
2018-12-17T14:55:52.759Z,14.20
2018-12-17T14:58:21.740Z,13.93
2018-12-17T15:00:50.714Z,14.97
2018-12-17T15:03:19.645Z,15.10
2018-12-17T15:05:48.623Z,14.27
2018-12-17T15:08:17.645Z,15.70
2018-12-17T15:10:46.576Z,14.70
2018-12-17T15:13:15.533Z,15.20
2018-12-17T15:15:44.497Z,16.57
2018-12-17T15:18:13.423Z,15.70
2018-12-17T15:20:42.367Z,14.50
2018-12-17T15:23:11.346Z,13.67
2018-12-17T15:25:40.376Z,15.50
2018-12-17T15:28:09.373Z,16.10
2018-12-17T15:30:38.351Z,15.10
2018-12-17T15:33:07.505Z,14.33
2018-12-17T15:35:36.439Z,13.27
2018-12-17T15:38:05.407Z,12.73
2018-12-17T15:40:34.371Z,14.13
2018-12-17T15:43:03.320Z,11.57
2018-12-17T15:45:32.291Z,15.47
2018-12-17T15:48:01.238Z,12.20
2018-12-17T15:50:30.195Z,13.00
2018-12-17T15:52:59.148Z,12.23
2018-12-17T15:55:28.114Z,12.47
2018-12-17T15:57:57.141Z,12.90
2018-12-17T16:00:26.119Z,13.13
2018-12-17T16:02:55.064Z,13.50
2018-12-17T16:05:24.047Z,12.90
2018-12-17T16:07:53.010Z,14.50
2018-12-17T16:10:21.995Z,13.57
2018-12-17T16:12:50.978Z,10.67
2018-12-17T16:15:19.987Z,11.87
2018-12-17T16:17:48.954Z,11.73
2018-12-17T16:20:17.929Z,12.00
2018-12-17T16:22:46.897Z,12.20
2018-12-17T16:25:15.877Z,12.57
2018-12-17T16:27:44.838Z,11.00
2018-12-17T16:30:13.846Z,11.97
2018-12-17T16:32:42.774Z,11.20
2018-12-17T16:35:11.779Z,12.83
2018-12-17T16:37:40.738Z,13.27
2018-12-17T16:40:09.793Z,13.57
2018-12-17T16:42:38.782Z,11.57
2018-12-17T16:45:08.719Z,11.43
2018-12-17T16:47:37.661Z,12.57
2018-12-17T16:50:08.777Z,11.30
2018-12-17T16:52:37.783Z,11.90
2018-12-17T16:55:06.876Z,12.10
2018-12-17T16:57:35.865Z,12.50
2018-12-17T17:02:52.130Z,11.60
2018-12-17T17:05:21.090Z,12.43
2018-12-17T17:07:50.036Z,13.00
2018-12-17T17:10:19.017Z,11.57
2018-12-17T17:12:47.967Z,11.50
2018-12-17T17:15:17.049Z,11.23
2018-12-17T17:17:46.007Z,11.00
2018-12-17T17:20:14.987Z,12.93
2018-12-17T17:22:43.940Z,11.97
2018-12-17T17:25:12.871Z,10.77
2018-12-17T17:27:41.836Z,13.33
2018-12-17T17:30:10.941Z,11.07
2018-12-17T17:32:40.031Z,9.97
2018-12-17T17:35:09.315Z,10.33
2018-12-17T17:37:38.270Z,10.50
2018-12-17T17:40:07.278Z,11.33
2018-12-17T17:42:36.235Z,11.00
2018-12-17T17:45:05.562Z,11.33
2018-12-17T17:47:34.522Z,9.70
2018-12-17T17:50:04.549Z,11.50
2018-12-17T17:52:33.490Z,11.13
2018-12-17T17:55:02.427Z,13.00
2018-12-17T17:57:31.442Z,12.07
2018-12-17T18:00:00.377Z,11.87
2018-12-17T18:02:29.365Z,14.03
2018-12-17T18:04:58.329Z,11.60
2018-12-17T18:07:27.266Z,11.07
2018-12-17T18:09:56.204Z,12.10
2018-12-17T18:12:25.196Z,11.00
2018-12-17T18:14:54.149Z,11.93
2018-12-17T18:17:23.110Z,13.17
2018-12-17T18:19:52.105Z,10.70
2018-12-17T18:22:21.061Z,13.33
2018-12-17T18:24:50.007Z,10.63
2018-12-17T18:27:19.087Z,12.60
2018-12-17T18:29:48.054Z,13.50
2018-12-17T18:32:17.010Z,12.50
2018-12-17T18:34:46.045Z,12.63
2018-12-17T18:37:15.043Z,13.23
2018-12-17T18:39:44.015Z,11.93
2018-12-17T18:42:12.946Z,13.20
2018-12-17T18:44:41.974Z,13.20
2018-12-17T18:47:10.922Z,12.30
2018-12-17T18:49:39.908Z,12.60
2018-12-17T18:52:08.913Z,14.73
2018-12-17T18:54:37.878Z,15.33
2018-12-17T18:57:06.924Z,13.00
2018-12-17T18:59:35.848Z,13.80
2018-12-17T19:02:04.816Z,12.27
2018-12-17T19:04:33.786Z,12.40
2018-12-17T19:07:03.760Z,13.77
2018-12-17T19:09:32.865Z,14.63
2018-12-17T19:12:01.864Z,12.50
2018-12-17T19:14:31.070Z,12.60
2018-12-17T19:17:00.001Z,13.13
2018-12-17T19:19:28.931Z,14.53
2018-12-17T19:21:57.897Z,13.30
2018-12-17T19:24:26.858Z,10.67
2018-12-17T19:26:55.814Z,13.20
2018-12-17T19:29:24.797Z,13.73
2018-12-17T19:31:53.768Z,13.47
2018-12-17T19:34:22.729Z,13.23
2018-12-17T19:36:51.682Z,15.50
2018-12-17T19:39:20.850Z,13.33
2018-12-17T19:41:49.797Z,15.23
2018-12-17T19:44:18.749Z,13.40
2018-12-17T19:46:47.734Z,15.33
2018-12-17T19:49:16.681Z,15.50
2018-12-17T19:51:45.640Z,14.33
2018-12-17T19:54:14.637Z,15.00
2018-12-17T19:56:43.663Z,15.80
2018-12-17T19:59:12.704Z,14.80
2018-12-17T20:01:41.673Z,15.87
2018-12-17T20:04:10.673Z,14.60
2018-12-17T20:06:39.632Z,17.23
2018-12-17T20:09:08.669Z,16.90
2018-12-17T20:11:37.593Z,13.63
2018-12-17T20:14:06.530Z,13.70
2018-12-17T20:16:35.506Z,13.67
2018-12-17T20:19:04.506Z,12.97
2018-12-17T20:21:33.468Z,14.30
2018-12-17T20:24:02.497Z,14.27
2018-12-17T20:26:31.480Z,14.53
2018-12-17T20:29:00.445Z,12.97
2018-12-17T20:31:31.387Z,12.37
2018-12-17T20:34:00.458Z,13.97
2018-12-17T20:36:29.402Z,13.60
2018-12-17T20:38:58.390Z,13.00
2018-12-17T20:41:27.345Z,11.60
2018-12-17T20:43:57.317Z,12.73
2018-12-17T20:46:26.263Z,11.77
2018-12-17T20:48:55.273Z,14.07
2018-12-17T20:51:24.202Z,12.40
2018-12-17T20:53:53.303Z,12.87
2018-12-17T20:56:22.238Z,12.80
2018-12-17T20:58:51.214Z,12.37
2018-12-17T21:01:20.331Z,12.37
2018-12-17T21:03:49.405Z,13.33
2018-12-17T21:06:18.504Z,12.40
2018-12-17T21:08:47.492Z,13.80
2018-12-17T21:11:16.463Z,13.00
2018-12-17T21:13:45.485Z,13.33
2018-12-17T21:16:14.437Z,12.60
2018-12-17T21:18:43.453Z,13.37
2018-12-17T21:21:12.398Z,12.17
2018-12-17T21:23:41.580Z,11.27
2018-12-17T21:26:10.597Z,11.43
2018-12-17T21:28:39.565Z,12.93
2018-12-17T21:31:09.539Z,13.40
2018-12-17T21:33:38.611Z,13.03
2018-12-17T21:36:07.652Z,13.43
2018-12-17T21:38:36.622Z,11.87
2018-12-17T21:41:05.597Z,12.73
2018-12-17T21:43:36.120Z,11.23
2018-12-17T21:46:05.308Z,11.13
2018-12-17T21:48:34.276Z,12.63
2018-12-17T21:51:03.406Z,13.10
2018-12-17T21:53:32.443Z,11.50
2018-12-17T21:56:01.407Z,9.87
2018-12-17T21:58:30.431Z,12.73
2018-12-17T22:00:59.534Z,10.70
2018-12-17T22:03:28.585Z,11.27
2018-12-17T22:05:57.711Z,10.20
2018-12-17T22:08:26.662Z,12.70
2018-12-17T22:10:55.713Z,9.97
2018-12-17T22:13:24.736Z,10.73
2018-12-17T22:15:53.663Z,12.50
2018-12-17T22:18:22.593Z,11.87
2018-12-17T22:20:51.642Z,10.00
2018-12-17T22:23:20.592Z,12.23
2018-12-17T22:25:49.573Z,10.60
2018-12-17T22:28:18.606Z,10.43
2018-12-17T22:30:47.740Z,10.63
2018-12-17T22:33:19.625Z,9.70
2018-12-17T22:35:47.658Z,9.90
2018-12-17T22:38:16.577Z,9.00
2018-12-17T22:40:45.604Z,10.60
2018-12-17T22:43:14.606Z,11.47
2018-12-17T22:45:43.523Z,9.60
2018-12-17T22:48:12.512Z,10.20
2018-12-17T22:50:41.497Z,9.90
2018-12-17T22:53:10.527Z,10.83
2018-12-17T22:55:39.484Z,10.60
2018-12-17T22:58:08.455Z,9.17
2018-12-17T23:00:37.697Z,9.73
2018-12-17T23:03:06.689Z,10.23
2018-12-17T23:05:35.725Z,10.40
2018-12-17T23:08:04.721Z,10.13
2018-12-17T23:10:51.605Z,9.63
2018-12-17T23:13:38.351Z,11.80
2018-12-17T23:16:25.098Z,8.00
2018-12-17T23:18:53.397Z,9.03
2018-12-17T23:21:22.406Z,12.37
2018-12-17T23:23:51.488Z,10.60
2018-12-17T23:26:21.499Z,10.03
2018-12-17T23:28:50.441Z,12.33
2018-12-17T23:31:19.408Z,12.17
2018-12-17T23:33:48.422Z,11.60
2018-12-17T23:36:17.502Z,11.33
2018-12-17T23:38:46.487Z,13.40
2018-12-17T23:41:15.612Z,11.70
2018-12-17T23:43:44.731Z,10.97
2018-12-17T23:46:13.757Z,12.30
2018-12-17T23:48:42.677Z,11.50
2018-12-17T23:51:11.725Z,11.80
2018-12-17T23:53:40.660Z,12.47
2018-12-17T23:56:09.601Z,13.80
2018-12-17T23:58:38.598Z,11.80
